College Corner, Ohio
Current Conditions -  °F | °C
As of 9:15 AM on Monday 24 Nov 2014 (Local Time) from KI67 Reporting Station
Overcast Overcast  
Wind Chill: 61°   Ceiling: 3700
Heat Index: 61°   Visibility: 10mi
Dew Point: 50°   Wind: 25mph
Humidity: 68%   Direction: 210°SSW
Pressure: 29.3"   Gusts: 35mph
Location:  39.57°N, 84.81°W
Report Text: KI67 241415Z AUTO 21022G30KT 10SM BKN037 OVC043 16/10 A2930 RMK AO1
Loading
Personal Weather Stations






























Interactive Weather Map New forecast layout! Learn more

10-Day Weather Forecast

Advertisements
Track Severe Weather on mobile